Time;durP1;ratioP1;P1;durP2;ratioP2;P2;SDS_P1;SDS_P2;PMS_P1;PMS_P2;Temp;Humidity;BMP_temperature;BMP_pressure;BME280_temperature;BME280_humidity;BME280_pressure;Samples;Min_cycle;Max_cycle;Signal;HPM_P1;HPM_P2
2023/07/31 00:00:34;;;;;;;2.22;0.95;;;19.90;99.90;;;;;;5030263;28;20025;-67
2023/07/31 00:02:59;;;;;;;2.65;0.50;;;19.80;99.90;;;;;;5029339;28;20366;-67
2023/07/31 00:05:25;;;;;;;1.15;0.57;;;19.80;99.90;;;;;;5012280;28;20018;-66
2023/07/31 00:07:51;;;;;;;2.17;0.75;;;19.80;99.90;;;;;;5032934;28;20027;-66
2023/07/31 00:10:17;;;;;;;5.38;0.73;;;19.80;99.90;;;;;;5034355;28;20130;-67
2023/07/31 00:12:45;;;;;;;1.33;0.77;;;19.70;99.90;;;;;;5033133;28;20041;-66
2023/07/31 00:15:11;;;;;;;3.47;0.80;;;19.70;99.90;;;;;;5034069;28;20037;-66
2023/07/31 00:17:37;;;;;;;4.88;0.80;;;19.70;99.90;;;;;;5016671;28;20120;-67
2023/07/31 00:20:03;;;;;;;1.95;0.73;;;19.60;99.90;;;;;;5033428;28;20153;-66
2023/07/31 00:22:29;;;;;;;3.88;0.75;;;19.70;99.90;;;;;;5033720;28;20069;-67
2023/07/31 00:24:57;;;;;;;3.53;0.68;;;19.60;99.90;;;;;;5033779;28;20103;-66
2023/07/31 00:27:22;;;;;;;1.75;0.80;;;19.60;99.90;;;;;;5015762;28;20412;-66
2023/07/31 00:29:48;;;;;;;1.92;0.57;;;19.60;99.90;;;;;;5033601;28;20036;-66
2023/07/31 00:32:14;;;;;;;1.27;0.50;;;19.60;99.90;;;;;;5033841;28;20033;-66
2023/07/31 00:34:40;;;;;;;3.05;0.80;;;19.70;99.90;;;;;;5033138;28;20045;-66
2023/07/31 00:37:06;;;;;;;2.15;0.47;;;19.60;99.90;;;;;;5033810;28;20044;-66
2023/07/31 00:39:33;;;;;;;0.98;0.40;;;19.50;99.90;;;;;;5033613;28;20045;-67
2023/07/31 00:41:59;;;;;;;3.15;0.68;;;19.50;99.90;;;;;;5033349;28;20021;-67
2023/07/31 00:44:25;;;;;;;4.43;0.60;;;19.50;99.90;;;;;;5033121;28;20024;-66
2023/07/31 00:46:51;;;;;;;2.03;0.90;;;19.50;99.90;;;;;;5033497;28;20036;-66
2023/07/31 00:49:17;;;;;;;3.60;0.75;;;19.60;99.90;;;;;;5016025;28;20379;-66
2023/07/31 00:51:42;;;;;;;5.70;0.70;;;19.50;99.90;;;;;;5015573;28;20095;-66
2023/07/31 00:54:09;;;;;;;1.35;0.73;;;19.50;99.90;;;;;;5014957;28;20091;-67
2023/07/31 00:56:34;;;;;;;1.63;0.65;;;19.50;99.90;;;;;;4999512;28;20401;-66
2023/07/31 00:59:00;;;;;;;7.38;1.67;;;19.40;99.90;;;;;;5015432;28;20041;-66
2023/07/31 01:01:26;;;;;;;6.82;1.23;;;19.40;99.90;;;;;;5015698;28;20026;-66
2023/07/31 01:03:53;;;;;;;2.47;0.77;;;19.40;99.90;;;;;;5030639;28;20026;-67
2023/07/31 01:06:36;;;;;;;7.18;0.93;;;19.10;99.90;;;;;;4987652;28;20552;-66
2023/07/31 01:09:11;;;;;;;3.30;0.65;;;18.90;99.90;;;;;;5013014;28;20050;-66
2023/07/31 01:11:52;;;;;;;2.85;0.82;;;18.80;99.90;;;;;;5003008;28;20022;-67
2023/07/31 01:14:18;;;;;;;4.45;0.85;;;18.70;99.90;;;;;;4995935;28;20038;-66
2023/07/31 01:16:43;;;;;;;3.90;1.67;;;18.60;99.90;;;;;;4993870;28;20049;-66
2023/07/31 01:19:10;;;;;;;2.53;0.60;;;18.60;99.90;;;;;;4992481;28;20034;-66
2023/07/31 01:21:36;;;;;;;0.90;0.50;;;18.60;99.90;;;;;;4993591;28;20035;-66
2023/07/31 01:24:43;;;;;;;4.18;0.70;;;18.60;99.90;;;;;;5001998;28;20102;-66
2023/07/31 01:27:24;;;;;;;1.83;0.75;;;18.50;99.90;;;;;;5016556;28;20489;-66
2023/07/31 01:30:19;;;;;;;4.72;0.80;;;18.40;99.90;;;;;;5015521;28;20049;-66
2023/07/31 01:32:48;;;;;;;4.25;0.75;;;18.40;99.90;;;;;;5031338;28;20041;-65
2023/07/31 01:35:14;;;;;;;1.58;0.55;;;18.40;99.90;;;;;;5014865;28;20120;-66
2023/07/31 01:37:40;;;;;;;4.25;1.02;;;18.30;99.90;;;;;;5015001;28;20029;-66
2023/07/31 01:40:08;;;;;;;3.67;0.77;;;18.40;99.90;;;;;;5013568;28;20517;-65
2023/07/31 01:42:34;;;;;;;2.63;0.70;;;18.40;99.90;;;;;;4994175;28;20553;-65
2023/07/31 01:45:00;;;;;;;4.30;1.15;;;18.40;99.90;;;;;;5012757;28;20120;-65
2023/07/31 01:47:25;;;;;;;4.97;0.98;;;18.40;99.90;;;;;;5012915;28;20121;-65
2023/07/31 01:49:51;;;;;;;0.82;0.35;;;18.30;99.90;;;;;;5013959;28;20045;-66
2023/07/31 01:52:17;;;;;;;4.63;1.40;;;18.30;99.90;;;;;;5024972;28;20029;-66
2023/07/31 01:54:42;;;;;;;1.52;0.80;;;18.30;99.90;;;;;;5027760;28;20108;-65
2023/07/31 01:57:08;;;;;;;3.90;1.10;;;18.30;99.90;;;;;;5014266;28;20045;-65
2023/07/31 01:59:34;;;;;;;3.58;1.05;;;18.30;99.90;;;;;;5032137;28;20048;-65
2023/07/31 02:02:00;;;;;;;5.20;1.10;;;18.30;99.90;;;;;;5014563;28;20083;-66
2023/07/31 02:04:25;;;;;;;1.85;0.82;;;18.30;99.90;;;;;;5013441;28;20026;-66
2023/07/31 02:06:52;;;;;;;4.93;1.50;;;18.30;99.90;;;;;;5032399;28;20036;-65
2023/07/31 02:09:18;;;;;;;4.97;1.00;;;18.40;99.90;;;;;;5032048;28;20500;-65
2023/07/31 02:11:44;;;;;;;2.25;0.90;;;18.40;99.90;;;;;;5031471;28;20041;-65
2023/07/31 02:14:10;;;;;;;7.53;1.35;;;18.40;99.90;;;;;;5030561;28;20030;-65
2023/07/31 02:16:35;;;;;;;1.25;0.43;;;18.50;99.90;;;;;;4994843;28;20037;-65
2023/07/31 02:19:01;;;;;;;0.35;0.35;;;18.50;99.90;;;;;;5011527;28;20121;-65
2023/07/31 02:21:27;;;;;;;3.47;0.90;;;18.50;99.90;;;;;;5011853;28;20026;-65
2023/07/31 02:23:52;;;;;;;6.47;1.08;;;18.50;99.90;;;;;;5011207;28;20374;-65
2023/07/31 02:26:18;;;;;;;0.88;0.63;;;18.50;99.90;;;;;;5023684;28;20023;-65
2023/07/31 02:28:44;;;;;;;1.08;0.75;;;18.50;99.90;;;;;;5014396;28;20514;-65
2023/07/31 02:31:10;;;;;;;4.10;0.93;;;18.50;99.90;;;;;;5030754;28;20497;-65
2023/07/31 02:33:35;;;;;;;3.42;0.90;;;18.50;99.90;;;;;;5012541;28;20052;-66
2023/07/31 02:36:01;;;;;;;3.13;0.65;;;18.50;99.90;;;;;;5031447;28;20489;-65
2023/07/31 02:38:27;;;;;;;1.48;0.63;;;18.50;99.90;;;;;;5031435;28;20033;-65
2023/07/31 02:40:52;;;;;;;1.02;0.80;;;18.50;99.90;;;;;;5031093;28;20064;-65
2023/07/31 02:43:18;;;;;;;2.17;0.75;;;18.50;99.90;;;;;;5030722;28;20029;-65
2023/07/31 02:45:44;;;;;;;2.17;0.70;;;18.50;99.90;;;;;;5031240;28;20037;-65
2023/07/31 02:48:09;;;;;;;1.35;0.57;;;18.50;99.90;;;;;;5030890;28;20440;-65
2023/07/31 02:50:35;;;;;;;0.70;0.60;;;18.40;99.90;;;;;;5013730;28;20032;-65
2023/07/31 02:53:01;;;;;;;1.98;1.10;;;18.30;99.90;;;;;;5030531;28;20091;-65
2023/07/31 02:55:27;;;;;;;1.38;0.60;;;18.30;99.90;;;;;;5013125;28;20155;-65
2023/07/31 02:57:53;;;;;;;3.03;0.50;;;18.20;99.90;;;;;;5013634;28;20029;-65
2023/07/31 03:00:19;;;;;;;3.25;0.70;;;18.20;99.90;;;;;;5031061;28;20029;-65
2023/07/31 03:02:45;;;;;;;1.48;0.70;;;18.20;99.90;;;;;;5012346;28;20112;-65
2023/07/31 03:05:10;;;;;;;3.85;1.48;;;18.20;99.90;;;;;;5030976;28;20033;-65
2023/07/31 03:07:36;;;;;;;1.67;0.90;;;18.20;99.90;;;;;;5013002;28;20030;-65
2023/07/31 03:10:02;;;;;;;1.90;0.40;;;18.10;99.90;;;;;;5018206;28;20044;-65
2023/07/31 03:12:28;;;;;;;3.03;0.90;;;18.20;99.90;;;;;;5022075;28;20512;-65
2023/07/31 03:14:53;;;;;;;1.23;0.60;;;18.20;99.90;;;;;;5024364;28;20038;-66
2023/07/31 03:17:19;;;;;;;1.55;0.77;;;18.20;99.90;;;;;;5011272;28;20427;-66
2023/07/31 03:19:45;;;;;;;4.10;1.10;;;18.30;99.90;;;;;;5010854;28;20061;-66
2023/07/31 03:22:10;;;;;;;2.60;0.90;;;18.30;99.90;;;;;;5011036;28;20033;-66
2023/07/31 03:24:36;;;;;;;3.90;0.77;;;18.30;99.90;;;;;;5010051;28;20034;-66
2023/07/31 03:27:02;;;;;;;0.98;0.65;;;18.20;99.90;;;;;;5028271;28;20474;-66
2023/07/31 03:29:28;;;;;;;3.88;0.90;;;18.20;99.90;;;;;;5030743;28;20481;-66
2023/07/31 03:31:54;;;;;;;1.52;0.80;;;18.20;99.90;;;;;;5030647;28;20032;-66
2023/07/31 03:34:19;;;;;;;1.30;0.57;;;18.20;99.90;;;;;;5029312;28;20440;-66
2023/07/31 03:36:45;;;;;;;1.70;1.20;;;18.10;99.90;;;;;;5030553;28;20029;-66
2023/07/31 03:39:11;;;;;;;4.57;0.90;;;18.10;99.90;;;;;;5030372;28;20045;-66
2023/07/31 03:41:36;;;;;;;4.25;0.82;;;18.20;99.90;;;;;;5029767;28;20037;-66
2023/07/31 03:44:02;;;;;;;1.73;0.57;;;18.10;99.90;;;;;;5029585;28;20021;-66
2023/07/31 03:46:28;;;;;;;2.53;1.05;;;18.10;99.90;;;;;;5012769;28;20474;-66
2023/07/31 03:48:54;;;;;;;2.63;1.13;;;18.10;99.90;;;;;;5029973;28;20032;-66
2023/07/31 03:51:19;;;;;;;1.20;0.65;;;18.20;99.90;;;;;;5030172;28;20069;-66
2023/07/31 03:53:45;;;;;;;2.38;0.88;;;18.10;99.90;;;;;;5029433;28;20084;-66
2023/07/31 03:56:11;;;;;;;2.97;0.98;;;18.10;99.90;;;;;;5029930;28;20069;-66
2023/07/31 03:58:37;;;;;;;3.53;1.40;;;18.10;99.90;;;;;;5023750;28;20056;-66
2023/07/31 04:01:03;;;;;;;6.03;1.02;;;18.00;99.90;;;;;;5007107;28;20104;-66
2023/07/31 04:03:29;;;;;;;2.83;0.80;;;18.00;99.90;;;;;;4991155;28;20084;-66
2023/07/31 04:05:56;;;;;;;2.28;1.08;;;18.00;99.90;;;;;;4992236;28;20034;-66
2023/07/31 04:08:22;;;;;;;1.58;0.95;;;18.00;99.90;;;;;;4989710;28;20037;-68
2023/07/31 04:10:48;;;;;;;4.97;1.25;;;18.00;99.90;;;;;;5021373;28;20394;-68
2023/07/31 04:13:15;;;;;;;1.40;0.80;;;18.00;99.90;;;;;;4996127;28;20030;-69
2023/07/31 04:15:41;;;;;;;2.95;1.02;;;18.00;99.90;;;;;;5010790;28;20792;-69
2023/07/31 04:18:07;;;;;;;5.50;1.45;;;18.00;99.90;;;;;;5009848;28;20022;-69
2023/07/31 04:20:32;;;;;;;3.72;1.10;;;18.00;99.90;;;;;;4992790;28;20124;-68
2023/07/31 04:22:58;;;;;;;2.75;1.00;;;17.90;99.90;;;;;;4991524;28;20026;-68
2023/07/31 04:25:24;;;;;;;3.85;1.13;;;18.00;99.90;;;;;;4989271;23;20042;-70
2023/07/31 04:27:50;;;;;;;3.13;0.82;;;18.00;99.90;;;;;;4993861;28;20100;-71
2023/07/31 04:30:16;;;;;;;1.90;1.10;;;17.90;99.90;;;;;;5010152;28;20038;-71
2023/07/31 04:32:41;;;;;;;4.72;0.77;;;17.90;99.90;;;;;;4991317;28;20038;-71
2023/07/31 04:35:07;;;;;;;3.28;0.80;;;18.00;99.90;;;;;;5001203;28;20066;-71
2023/07/31 04:37:33;;;;;;;1.77;0.55;;;18.00;99.90;;;;;;4973734;28;20125;-70
2023/07/31 04:39:59;;;;;;;4.75;1.15;;;17.90;99.90;;;;;;4991316;28;20086;-70
2023/07/31 04:42:25;;;;;;;4.18;1.00;;;17.90;99.90;;;;;;4992434;28;20669;-70
2023/07/31 04:44:52;;;;;;;3.15;1.05;;;18.00;99.90;;;;;;4992079;28;20121;-71
2023/07/31 04:47:19;;;;;;;3.78;1.42;;;18.00;99.90;;;;;;4974388;28;20034;-69
2023/07/31 04:49:44;;;;;;;3.38;0.95;;;18.00;99.90;;;;;;4990753;28;20038;-72
2023/07/31 04:52:10;;;;;;;2.95;1.20;;;17.90;99.90;;;;;;4973062;28;20749;-71
2023/07/31 04:54:36;;;;;;;3.45;1.20;;;18.00;99.90;;;;;;4991193;28;20106;-70
2023/07/31 04:57:02;;;;;;;1.35;0.80;;;18.10;99.90;;;;;;4994285;28;20391;-72
2023/07/31 04:59:28;;;;;;;1.58;0.70;;;18.10;99.90;;;;;;4993829;28;20332;-70
2023/07/31 05:01:53;;;;;;;2.08;1.10;;;18.00;99.90;;;;;;4993641;28;20027;-70
2023/07/31 05:04:19;;;;;;;1.38;0.73;;;18.10;99.90;;;;;;4992419;28;20042;-69
2023/07/31 05:06:45;;;;;;;1.70;0.65;;;18.10;99.90;;;;;;5008695;28;20042;-69
2023/07/31 05:09:10;;;;;;;2.15;1.00;;;18.20;99.90;;;;;;5003573;28;20087;-69
2023/07/31 05:11:36;;;;;;;2.45;0.65;;;18.20;99.90;;;;;;4993454;28;20436;-69
2023/07/31 05:14:02;;;;;;;6.82;1.23;;;18.20;99.90;;;;;;4993150;28;20049;-69
2023/07/31 05:16:27;;;;;;;3.78;0.93;;;18.30;99.90;;;;;;4993093;28;20057;-69
2023/07/31 05:18:53;;;;;;;4.65;0.80;;;18.40;99.90;;;;;;4993628;28;20121;-69
2023/07/31 05:21:19;;;;;;;4.45;0.50;;;18.30;99.90;;;;;;4993502;28;20038;-69
2023/07/31 05:23:44;;;;;;;5.00;1.67;;;18.20;99.90;;;;;;4992350;28;20033;-71
2023/07/31 05:26:10;;;;;;;4.30;1.50;;;18.20;99.90;;;;;;5003676;28;20030;-70
2023/07/31 05:28:36;;;;;;;5.53;0.70;;;18.10;99.90;;;;;;5006202;28;20104;-70
2023/07/31 05:31:04;;;;;;;3.53;1.17;;;18.20;99.90;;;;;;4993338;28;20030;-70
2023/07/31 05:33:30;;;;;;;5.13;0.68;;;18.20;99.90;;;;;;4992127;28;20081;-70
2023/07/31 05:35:56;;;;;;;2.97;1.00;;;18.30;99.90;;;;;;5008310;28;20120;-71
2023/07/31 05:38:23;;;;;;;3.45;1.35;;;18.30;99.90;;;;;;4992515;28;20031;-71
2023/07/31 05:40:49;;;;;;;2.25;1.00;;;18.20;99.90;;;;;;4993105;28;20100;-70
2023/07/31 05:43:15;;;;;;;9.52;1.60;;;18.30;99.90;;;;;;4992752;28;20034;-70
2023/07/31 05:45:42;;;;;;;2.72;1.05;;;18.40;99.90;;;;;;4992530;28;20026;-70
2023/07/31 05:48:08;;;;;;;4.20;1.10;;;18.40;99.90;;;;;;4975549;28;20454;-70
2023/07/31 05:50:34;;;;;;;5.63;1.00;;;18.50;99.90;;;;;;4993265;28;20060;-71
2023/07/31 05:52:59;;;;;;;3.30;0.75;;;18.40;99.90;;;;;;4991879;28;20038;-70
2023/07/31 05:55:28;;;;;;;5.65;1.35;;;18.40;99.90;;;;;;4992792;28;20753;-69
2023/07/31 05:57:54;;;;;;;1.20;0.50;;;18.40;99.90;;;;;;4976084;28;20410;-69
2023/07/31 06:00:23;;;;;;;6.03;1.88;;;18.50;99.90;;;;;;4975093;28;20034;-70
2023/07/31 06:02:49;;;;;;;3.22;0.95;;;18.60;99.90;;;;;;4992097;28;20100;-69
2023/07/31 06:05:15;;;;;;;3.50;1.05;;;18.60;99.90;;;;;;4975059;28;20478;-70
2023/07/31 06:07:40;;;;;;;2.63;1.00;;;18.60;99.90;;;;;;4992302;28;20494;-70
2023/07/31 06:10:08;;;;;;;2.85;1.00;;;18.60;99.90;;;;;;4995274;28;20076;-69
2023/07/31 06:12:35;;;;;;;4.15;0.70;;;18.40;99.90;;;;;;4991939;28;20038;-69
2023/07/31 06:15:02;;;;;;;2.42;0.90;;;18.50;99.90;;;;;;4991780;28;20143;-69
2023/07/31 06:17:29;;;;;;;4.90;1.27;;;18.60;99.90;;;;;;4992748;28;20506;-68
2023/07/31 06:19:56;;;;;;;2.80;0.98;;;18.70;99.90;;;;;;5010008;28;20401;-71
2023/07/31 06:22:22;;;;;;;3.63;1.05;;;18.70;99.90;;;;;;5011554;28;20030;-71
2023/07/31 06:24:48;;;;;;;1.65;0.75;;;18.70;99.90;;;;;;4994211;28;20040;-71
2023/07/31 06:27:13;;;;;;;5.60;0.90;;;18.80;99.90;;;;;;4975252;28;20023;-71
2023/07/31 06:29:39;;;;;;;2.97;1.55;;;18.90;99.90;;;;;;4992561;28;20034;-70
2023/07/31 06:32:05;;;;;;;3.75;1.20;;;18.90;99.90;;;;;;4991957;28;20503;-70
2023/07/31 06:34:31;;;;;;;2.95;1.10;;;18.70;99.90;;;;;;4991565;28;20050;-70
2023/07/31 06:36:57;;;;;;;2.65;0.90;;;18.80;99.90;;;;;;4992303;28;20125;-70
2023/07/31 06:39:23;;;;;;;4.32;1.20;;;18.90;99.90;;;;;;4991496;28;20034;-70
2023/07/31 06:41:48;;;;;;;3.78;1.42;;;18.90;99.90;;;;;;4991692;28;20034;-69
2023/07/31 06:44:14;;;;;;;4.07;1.25;;;18.90;99.90;;;;;;4991231;28;20085;-71
2023/07/31 06:46:40;;;;;;;6.95;1.10;;;19.00;99.90;;;;;;4991870;28;20041;-70
2023/07/31 06:49:06;;;;;;;2.60;1.13;;;19.00;99.90;;;;;;4992132;28;20034;-71
2023/07/31 06:51:31;;;;;;;2.40;0.80;;;19.00;99.90;;;;;;4992090;28;20049;-71
2023/07/31 06:54:00;;;;;;;2.22;0.80;;;19.00;99.90;;;;;;4991027;28;20069;-78
2023/07/31 06:56:26;;;;;;;1.25;0.80;;;19.00;99.90;;;;;;4982699;28;20034;-75
2023/07/31 06:58:52;;;;;;;7.15;0.88;;;18.90;99.90;;;;;;4981662;28;20041;-75
2023/07/31 07:01:17;;;;;;;1.35;0.85;;;18.80;99.90;;;;;;4989413;28;20105;-75
2023/07/31 07:03:43;;;;;;;2.35;1.02;;;18.90;99.90;;;;;;4990381;28;20037;-76
2023/07/31 07:06:09;;;;;;;1.30;0.80;;;19.00;99.90;;;;;;4991553;28;20022;-76
2023/07/31 07:08:34;;;;;;;4.50;1.45;;;19.00;99.90;;;;;;4957638;28;20041;-75
2023/07/31 07:11:00;;;;;;;5.20;0.77;;;19.00;99.90;;;;;;4990476;28;20032;-75
2023/07/31 07:13:26;;;;;;;3.55;1.13;;;19.00;99.90;;;;;;4991186;28;20085;-76
2023/07/31 07:15:51;;;;;;;4.72;0.60;;;19.00;99.90;;;;;;4991090;28;20027;-76
2023/07/31 07:18:18;;;;;;;1.60;0.93;;;19.10;99.90;;;;;;4990864;28;20041;-75
2023/07/31 07:20:51;;;;;;;2.30;0.65;;;19.20;99.90;;;;;;4990351;28;20105;-76
2023/07/31 07:23:17;;;;;;;2.00;0.95;;;19.20;99.90;;;;;;4989077;28;20368;-75
2023/07/31 07:25:45;;;;;;;3.03;1.58;;;19.40;99.90;;;;;;4997025;28;20029;-76
2023/07/31 07:28:11;;;;;;;2.38;0.95;;;19.40;99.90;;;;;;5010700;28;20040;-76
2023/07/31 07:30:37;;;;;;;2.92;0.90;;;19.60;99.90;;;;;;4993127;28;20026;-76
2023/07/31 07:33:03;;;;;;;3.78;1.00;;;19.60;99.90;;;;;;5010193;28;20363;-76
2023/07/31 07:35:29;;;;;;;7.97;1.10;;;19.80;99.90;;;;;;4994534;28;20092;-75
2023/07/31 07:37:55;;;;;;;2.15;0.85;;;19.80;99.90;;;;;;4990231;28;20030;-79
2023/07/31 07:40:21;;;;;;;1.20;0.70;;;19.80;99.90;;;;;;4974008;28;20034;-76
2023/07/31 07:42:47;;;;;;;4.03;0.90;;;19.70;99.90;;;;;;4990691;28;20121;-77
2023/07/31 07:45:13;;;;;;;1.85;0.90;;;19.60;99.90;;;;;;4991072;28;20438;-76
2023/07/31 07:47:40;;;;;;;1.92;1.10;;;19.80;99.90;;;;;;4991021;28;20109;-75
2023/07/31 07:50:07;;;;;;;1.58;0.57;;;19.90;99.90;;;;;;4973993;28;20096;-76
2023/07/31 07:52:33;;;;;;;2.58;0.80;;;20.00;99.90;;;;;;4990372;28;20027;-77
2023/07/31 07:55:00;;;;;;;3.72;1.00;;;20.00;99.90;;;;;;4991231;28;20030;-76
2023/07/31 07:57:26;;;;;;;3.38;1.25;;;20.00;99.90;;;;;;4990961;28;20130;-76
2023/07/31 07:59:52;;;;;;;3.83;1.17;;;20.10;99.90;;;;;;4990838;28;20034;-75
2023/07/31 08:02:18;;;;;;;3.97;0.70;;;20.10;99.90;;;;;;4975581;28;20093;-76
2023/07/31 08:04:43;;;;;;;4.00;1.13;;;20.10;99.90;;;;;;4973813;28;20026;-76
2023/07/31 08:07:13;;;;;;;2.25;1.00;;;20.30;99.90;;;;;;4973135;28;20393;-76
2023/07/31 08:09:39;;;;;;;4.63;1.10;;;20.20;99.90;;;;;;4973462;28;20026;-76
2023/07/31 08:12:06;;;;;;;6.88;0.60;;;20.50;99.90;;;;;;4991019;28;20370;-76
2023/07/31 08:14:31;;;;;;;5.63;1.63;;;20.30;99.90;;;;;;4989145;28;20066;-77
2023/07/31 08:16:57;;;;;;;4.78;0.93;;;20.30;99.90;;;;;;4990112;28;20061;-76
2023/07/31 08:19:23;;;;;;;4.22;0.85;;;20.60;99.90;;;;;;4990356;28;20038;-76
2023/07/31 08:21:49;;;;;;;2.03;0.75;;;20.60;99.90;;;;;;4989396;28;20037;-76
2023/07/31 08:24:15;;;;;;;2.88;0.77;;;20.80;99.90;;;;;;4989951;28;20030;-75
2023/07/31 08:26:41;;;;;;;3.45;0.95;;;20.80;99.90;;;;;;5006015;28;20054;-76
2023/07/31 08:29:06;;;;;;;5.68;1.13;;;20.80;99.90;;;;;;4977695;28;20027;-76
2023/07/31 08:31:32;;;;;;;5.10;1.02;;;20.80;99.90;;;;;;4994818;28;20034;-76
2023/07/31 08:33:58;;;;;;;2.22;0.98;;;20.90;99.90;;;;;;4994315;28;20513;-76
2023/07/31 08:36:24;;;;;;;2.10;0.90;;;20.90;99.90;;;;;;4973817;28;20093;-74
2023/07/31 08:38:52;;;;;;;6.50;1.20;;;20.80;99.90;;;;;;4973454;28;20030;-75
2023/07/31 08:41:18;;;;;;;3.10;0.98;;;20.90;99.90;;;;;;4994689;28;20177;-73
2023/07/31 08:43:49;;;;;;;2.25;0.70;;;21.20;99.90;;;;;;4976273;28;20109;-74
2023/07/31 08:46:15;;;;;;;3.67;1.48;;;21.20;99.90;;;;;;4977242;28;20038;-75
2023/07/31 08:48:42;;;;;;;3.72;1.17;;;21.20;99.90;;;;;;4976803;28;20034;-75
2023/07/31 08:51:09;;;;;;;2.90;1.20;;;21.30;99.90;;;;;;4960570;28;20118;-76
2023/07/31 08:53:35;;;;;;;2.08;0.75;;;21.50;99.90;;;;;;4993626;28;20029;-75
2023/07/31 08:56:01;;;;;;;2.30;1.17;;;21.90;99.90;;;;;;4994341;28;20034;-75
2023/07/31 08:58:32;;;;;;;3.42;1.17;;;21.80;99.90;;;;;;4993605;28;20053;-74
2023/07/31 09:01:02;;;;;;;3.40;1.33;;;21.70;99.90;;;;;;4976996;28;20042;-74
2023/07/31 09:03:32;;;;;;;4.13;1.43;;;21.70;99.90;;;;;;4976788;28;20034;-74
2023/07/31 09:05:59;;;;;;;5.50;1.55;;;21.60;99.90;;;;;;4977066;28;20030;-75
2023/07/31 09:08:29;;;;;;;2.58;1.25;;;21.40;99.90;;;;;;4976587;28;20481;-74
2023/07/31 09:11:02;;;;;;;2.72;0.70;;;21.10;99.90;;;;;;4993745;28;20453;-74
2023/07/31 09:13:30;;;;;;;6.88;0.95;;;21.30;99.90;;;;;;4993120;28;20038;-74
2023/07/31 09:15:57;;;;;;;9.07;1.42;;;21.30;99.90;;;;;;4976460;28;20679;-73
2023/07/31 09:18:23;;;;;;;2.05;0.88;;;21.20;99.90;;;;;;4992261;28;20056;-74
2023/07/31 09:21:02;;;;;;;3.75;1.13;;;21.40;99.90;;;;;;4993441;28;20466;-73
2023/07/31 09:23:44;;;;;;;4.60;1.20;;;21.60;99.90;;;;;;4993270;28;20026;-73
2023/07/31 09:26:11;;;;;;;2.22;1.10;;;21.60;99.90;;;;;;5004209;28;20496;-73
2023/07/31 09:28:37;;;;;;;4.70;1.23;;;21.40;99.90;;;;;;4994984;28;20510;-73
2023/07/31 09:31:02;;;;;;;2.35;0.85;;;21.40;99.90;;;;;;5013404;28;20113;-73
2023/07/31 09:33:28;;;;;;;2.00;0.80;;;21.50;99.90;;;;;;5012510;28;20489;-73
2023/07/31 09:35:54;;;;;;;5.28;0.98;;;21.60;99.90;;;;;;4994924;28;20030;-73
2023/07/31 09:38:20;;;;;;;6.65;1.38;;;21.80;99.90;;;;;;4987921;28;20026;-73
2023/07/31 09:40:48;;;;;;;3.70;1.02;;;21.90;99.90;;;;;;4992867;28;20034;-74
2023/07/31 09:43:19;;;;;;;3.78;1.25;;;21.60;99.90;;;;;;4992113;28;20062;-73
2023/07/31 09:45:46;;;;;;;6.25;1.52;;;21.80;99.90;;;;;;4975772;28;20038;-74
2023/07/31 09:48:18;;;;;;;4.35;1.23;;;21.90;99.90;;;;;;4976099;28;20026;-74
2023/07/31 09:50:47;;;;;;;2.13;1.05;;;22.00;99.90;;;;;;4959622;28;20133;-74
2023/07/31 09:53:14;;;;;;;4.97;1.08;;;22.30;99.90;;;;;;4959264;28;20105;-74
2023/07/31 09:55:41;;;;;;;3.80;1.15;;;22.00;99.90;;;;;;4975815;28;20034;-74
2023/07/31 09:58:09;;;;;;;1.65;0.70;;;22.10;99.90;;;;;;4992657;28;20052;-73
2023/07/31 10:00:36;;;;;;;5.65;1.30;;;22.20;99.90;;;;;;4978523;28;20104;-73
2023/07/31 10:03:08;;;;;;;5.05;1.23;;;22.10;99.90;;;;;;4994616;28;20022;-74
2023/07/31 10:05:42;;;;;;;10.63;1.58;;;22.00;99.90;;;;;;5012269;28;20037;-75
2023/07/31 10:08:10;;;;;;;1.92;1.00;;;22.00;99.90;;;;;;5006580;28;20026;-74
2023/07/31 10:10:45;;;;;;;3.22;1.10;;;21.90;99.90;;;;;;4975311;28;20591;-73
2023/07/31 10:13:15;;;;;;;2.28;1.25;;;21.80;99.90;;;;;;4990430;28;20038;-74
2023/07/31 10:15:43;;;;;;;5.40;1.25;;;21.80;99.90;;;;;;4992189;28;20034;-74
2023/07/31 10:18:09;;;;;;;6.18;1.33;;;21.90;99.90;;;;;;4975723;28;20111;-74
2023/07/31 10:20:36;;;;;;;4.07;1.30;;;21.90;99.90;;;;;;4990791;28;20649;-74
2023/07/31 10:23:02;;;;;;;2.58;1.13;;;22.00;99.90;;;;;;4992586;28;20036;-74
2023/07/31 10:25:31;;;;;;;3.20;1.33;;;22.30;99.90;;;;;;5011505;23;20568;-71
2023/07/31 10:27:58;;;;;;;5.78;1.48;;;22.60;99.90;;;;;;5002173;28;20026;-71
2023/07/31 10:30:29;;;;;;;2.75;1.20;;;22.60;99.90;;;;;;5026961;28;20104;-71
2023/07/31 10:32:55;;;;;;;3.60;1.33;;;22.70;99.90;;;;;;5009698;28;20030;-71
2023/07/31 10:35:24;;;;;;;8.10;1.25;;;22.70;99.90;;;;;;5011666;28;20073;-71
2023/07/31 10:37:52;;;;;;;4.97;1.45;;;22.80;99.90;;;;;;5011902;28;20034;-71
2023/07/31 10:40:23;;;;;;;3.08;0.80;;;22.80;99.90;;;;;;4993813;28;20053;-71
2023/07/31 10:43:00;;;;;;;4.05;1.60;;;22.60;99.90;;;;;;5009477;28;20503;-71
2023/07/31 10:45:42;;;;;;;3.88;1.05;;;22.70;99.90;;;;;;4994353;28;20088;-70
2023/07/31 10:48:16;;;;;;;3.15;1.17;;;22.40;99.90;;;;;;5011726;28;20506;-72
2023/07/31 10:50:56;;;;;;;4.35;1.08;;;22.80;99.90;;;;;;4993413;28;20038;-69
2023/07/31 10:53:35;;;;;;;4.38;1.25;;;22.80;99.90;;;;;;5009149;28;20037;-69
2023/07/31 10:56:04;;;;;;;6.57;1.13;;;22.70;99.90;;;;;;5011420;28;20034;-70
2023/07/31 10:58:32;;;;;;;4.60;1.13;;;22.50;99.90;;;;;;5009446;28;20032;-69
2023/07/31 11:01:03;;;;;;;2.95;1.27;;;22.60;99.90;;;;;;4993774;28;20029;-69
2023/07/31 11:03:45;;;;;;;3.25;1.50;;;22.80;99.90;;;;;;5009458;28;20045;-69
2023/07/31 11:06:11;;;;;;;2.08;1.10;;;22.90;99.90;;;;;;5009978;28;20029;-69
2023/07/31 11:08:49;;;;;;;3.28;1.30;;;22.80;99.90;;;;;;5009591;28;20050;-69
2023/07/31 11:11:20;;;;;;;5.25;1.27;;;22.70;99.90;;;;;;4993616;28;20176;-69
2023/07/31 11:13:52;;;;;;;4.03;1.10;;;22.70;99.90;;;;;;4977094;28;20394;-69
2023/07/31 11:16:21;;;;;;;4.20;1.27;;;22.80;99.90;;;;;;4993462;28;20064;-69
2023/07/31 11:18:49;;;;;;;6.07;1.52;;;22.90;99.80;;;;;;5010692;28;20508;-69
2023/07/31 11:21:24;;;;;;;3.15;1.10;;;23.00;99.80;;;;;;5011286;28;20037;-69
2023/07/31 11:23:52;;;;;;;3.63;1.17;;;23.30;99.90;;;;;;5010236;28;20026;-69
2023/07/31 11:26:19;;;;;;;1.90;0.90;;;23.30;99.90;;;;;;4992863;28;20033;-70
2023/07/31 11:28:50;;;;;;;1.73;1.23;;;23.30;99.90;;;;;;4996334;28;20037;-69
2023/07/31 11:31:16;;;;;;;1.80;0.70;;;23.20;99.90;;;;;;4972161;28;20034;-69
2023/07/31 11:33:42;;;;;;;2.97;1.60;;;22.80;99.90;;;;;;4992370;28;20038;-69
2023/07/31 11:36:19;;;;;;;2.15;1.58;;;22.90;99.90;;;;;;5009447;28;20026;-69
2023/07/31 11:38:45;;;;;;;3.03;1.17;;;22.80;99.90;;;;;;5009057;28;20030;-69
2023/07/31 11:41:16;;;;;;;2.70;1.05;;;22.60;99.90;;;;;;5010142;28;20385;-70
2023/07/31 11:43:42;;;;;;;3.15;1.50;;;22.70;99.90;;;;;;5008758;28;20080;-70
2023/07/31 11:46:09;;;;;;;12.73;1.00;;;22.60;99.90;;;;;;5009532;28;20030;-70
2023/07/31 11:48:37;;;;;;;4.85;0.90;;;22.80;99.90;;;;;;5010187;28;20501;-70
2023/07/31 11:51:10;;;;;;;2.05;0.60;;;22.80;99.90;;;;;;5010617;28;20107;-70
2023/07/31 11:53:57;;;;;;;5.97;1.85;;;22.80;99.90;;;;;;5009363;28;20101;-70
2023/07/31 11:56:24;;;;;;;3.05;1.17;;;22.70;99.90;;;;;;5008965;28;20129;-71
2023/07/31 11:59:02;;;;;;;3.00;1.23;;;22.60;99.90;;;;;;5008978;28;20026;-70
2023/07/31 12:01:28;;;;;;;4.85;1.85;;;22.40;99.90;;;;;;5009211;28;20107;-70
2023/07/31 12:03:55;;;;;;;2.92;1.17;;;22.50;99.90;;;;;;5013979;28;20371;-70
2023/07/31 12:06:21;;;;;;;4.97;1.45;;;22.50;99.90;;;;;;5016761;28;20030;-70
2023/07/31 12:08:49;;;;;;;7.07;1.25;;;22.60;99.90;;;;;;5016987;28;20102;-70
2023/07/31 12:11:14;;;;;;;1.75;0.90;;;22.70;99.90;;;;;;5016482;28;20486;-70
2023/07/31 12:13:41;;;;;;;6.18;1.75;;;22.70;99.90;;;;;;5016273;28;20068;-70
2023/07/31 12:16:07;;;;;;;2.95;1.15;;;22.70;99.90;;;;;;5017103;28;20029;-70
2023/07/31 12:18:38;;;;;;;3.17;1.27;;;22.60;99.90;;;;;;4998495;28;20069;-70
2023/07/31 12:21:08;;;;;;;4.90;1.42;;;22.70;99.90;;;;;;5014773;28;20026;-70
2023/07/31 12:23:36;;;;;;;5.15;1.40;;;22.80;99.90;;;;;;4998391;28;20022;-70
2023/07/31 12:26:13;;;;;;;3.30;1.65;;;22.80;99.90;;;;;;5016155;28;20036;-70
2023/07/31 12:28:48;;;;;;;4.05;1.15;;;22.90;99.90;;;;;;5016746;28;20030;-70
2023/07/31 12:31:20;;;;;;;1.38;0.68;;;22.90;99.90;;;;;;4999791;28;20062;-70
2023/07/31 12:33:49;;;;;;;3.45;1.38;;;22.90;99.90;;;;;;5015662;28;20365;-70
2023/07/31 12:36:22;;;;;;;4.45;1.50;;;22.90;99.90;;;;;;4999370;28;20077;-70
2023/07/31 12:38:49;;;;;;;12.25;1.27;;;22.80;99.90;;;;;;5016472;28;20024;-70
2023/07/31 12:41:15;;;;;;;3.53;0.70;;;22.70;99.90;;;;;;5014837;28;20034;-70
2023/07/31 12:43:42;;;;;;;3.17;1.38;;;22.70;99.90;;;;;;5015794;28;20037;-70
2023/07/31 12:46:09;;;;;;;3.20;1.25;;;22.70;99.90;;;;;;4998994;28;20108;-70